sensor_id;sensor_type;location;lat;lon;timestamp;pressure;altitude;pressure_sealevel;temperature;humidity
64095;BME280;50353;51.420;5.682;2023-05-22T00:01:31;101166.75;;;18.68;83.01
64095;BME280;50353;51.420;5.682;2023-05-22T00:03:56;101165.06;;;18.67;83.02
64095;BME280;50353;51.420;5.682;2023-05-22T00:06:22;101170.50;;;18.46;83.92
64095;BME280;50353;51.420;5.682;2023-05-22T00:08:48;101172.47;;;18.44;83.58
64095;BME280;50353;51.420;5.682;2023-05-22T00:11:13;101171.63;;;18.43;83.74
64095;BME280;50353;51.420;5.682;2023-05-22T00:13:39;101171.78;;;18.51;83.22
64095;BME280;50353;51.420;5.682;2023-05-22T00:16:04;101166.72;;;18.17;84.99
64095;BME280;50353;51.420;5.682;2023-05-22T00:18:30;101165.72;;;18.49;83.59
64095;BME280;50353;51.420;5.682;2023-05-22T00:20:56;101161.91;;;18.11;85.04
64095;BME280;50353;51.420;5.682;2023-05-22T00:23:22;101166.84;;;18.47;83.94
64095;BME280;50353;51.420;5.682;2023-05-22T00:25:47;101165.09;;;18.26;84.85
64095;BME280;50353;51.420;5.682;2023-05-22T00:28:14;101161.00;;;18.01;85.53
64095;BME280;50353;51.420;5.682;2023-05-22T00:30:39;101164.00;;;18.38;84.38
64095;BME280;50353;51.420;5.682;2023-05-22T00:33:05;101160.56;;;18.27;84.83
64095;BME280;50353;51.420;5.682;2023-05-22T00:35:30;101156.81;;;18.39;83.70
64095;BME280;50353;51.420;5.682;2023-05-22T00:37:55;101159.88;;;18.24;84.56
64095;BME280;50353;51.420;5.682;2023-05-22T00:40:21;101157.59;;;18.20;84.60
64095;BME280;50353;51.420;5.682;2023-05-22T00:42:46;101155.19;;;18.17;85.05
64095;BME280;50353;51.420;5.682;2023-05-22T00:45:13;101157.53;;;18.41;83.51
64095;BME280;50353;51.420;5.682;2023-05-22T00:47:39;101149.34;;;18.33;84.54
64095;BME280;50353;51.420;5.682;2023-05-22T00:50:05;101148.88;;;18.28;84.50
64095;BME280;50353;51.420;5.682;2023-05-22T00:52:32;101145.56;;;18.04;85.90
64095;BME280;50353;51.420;5.682;2023-05-22T00:54:59;101150.38;;;18.11;85.07
64095;BME280;50353;51.420;5.682;2023-05-22T00:57:24;101152.06;;;17.90;86.63
64095;BME280;50353;51.420;5.682;2023-05-22T00:59:50;101150.97;;;18.24;84.86
64095;BME280;50353;51.420;5.682;2023-05-22T01:02:16;101152.53;;;18.27;84.55
64095;BME280;50353;51.420;5.682;2023-05-22T01:04:45;101149.59;;;17.78;86.69
64095;BME280;50353;51.420;5.682;2023-05-22T01:07:14;101145.56;;;18.04;86.05
64095;BME280;50353;51.420;5.682;2023-05-22T01:09:43;101152.88;;;17.39;88.56
64095;BME280;50353;51.420;5.682;2023-05-22T01:12:42;101141.00;;;17.74;87.72
64095;BME280;50353;51.420;5.682;2023-05-22T01:15:25;101153.00;;;17.80;87.29
64095;BME280;50353;51.420;5.682;2023-05-22T01:18:10;101152.22;;;17.68;87.56
64095;BME280;50353;51.420;5.682;2023-05-22T01:20:51;101148.31;;;17.72;87.85
64095;BME280;50353;51.420;5.682;2023-05-22T01:23:30;101145.69;;;17.82;86.83
64095;BME280;50353;51.420;5.682;2023-05-22T01:28:54;101144.59;;;17.42;89.58
64095;BME280;50353;51.420;5.682;2023-05-22T01:31:23;101142.56;;;17.55;88.09
64095;BME280;50353;51.420;5.682;2023-05-22T01:33:54;101152.03;;;17.60;88.60
64095;BME280;50353;51.420;5.682;2023-05-22T01:36:21;101153.59;;;17.41;88.69
64095;BME280;50353;51.420;5.682;2023-05-22T01:38:49;101147.19;;;17.74;87.87
64095;BME280;50353;51.420;5.682;2023-05-22T01:41:16;101148.31;;;17.51;88.69
64095;BME280;50353;51.420;5.682;2023-05-22T01:43:42;101152.56;;;17.53;88.09
64095;BME280;50353;51.420;5.682;2023-05-22T01:46:07;101151.16;;;17.80;86.93
64095;BME280;50353;51.420;5.682;2023-05-22T01:48:32;101146.50;;;17.72;87.07
64095;BME280;50353;51.420;5.682;2023-05-22T01:51:14;101145.44;;;17.43;88.63
64095;BME280;50353;51.420;5.682;2023-05-22T01:54:04;101148.81;;;17.87;86.46
64095;BME280;50353;51.420;5.682;2023-05-22T01:56:44;101145.19;;;17.46;88.38
64095;BME280;50353;51.420;5.682;2023-05-22T01:59:22;101137.34;;;17.54;88.25
64095;BME280;50353;51.420;5.682;2023-05-22T02:01:50;101132.31;;;17.18;89.53
64095;BME280;50353;51.420;5.682;2023-05-22T02:04:19;101133.56;;;17.14;90.00
64095;BME280;50353;51.420;5.682;2023-05-22T02:06:46;101148.50;;;17.38;89.09
64095;BME280;50353;51.420;5.682;2023-05-22T02:09:14;101131.78;;;17.24;88.76
64095;BME280;50353;51.420;5.682;2023-05-22T02:11:41;101145.34;;;17.33;89.58
64095;BME280;50353;51.420;5.682;2023-05-22T02:14:06;101133.91;;;17.10;90.87
64095;BME280;50353;51.420;5.682;2023-05-22T02:16:33;101140.53;;;17.27;89.99
64095;BME280;50353;51.420;5.682;2023-05-22T02:18:59;101135.59;;;16.89;90.58
64095;BME280;50353;51.420;5.682;2023-05-22T02:21:31;101141.63;;;17.03;91.29
64095;BME280;50353;51.420;5.682;2023-05-22T02:23:56;101139.88;;;17.13;91.22
64095;BME280;50353;51.420;5.682;2023-05-22T02:26:22;101131.72;;;17.15;90.79
64095;BME280;50353;51.420;5.682;2023-05-22T02:28:47;101130.28;;;17.11;90.05
64095;BME280;50353;51.420;5.682;2023-05-22T02:31:12;101130.56;;;17.29;89.32
64095;BME280;50353;51.420;5.682;2023-05-22T02:33:38;101128.19;;;17.47;89.22
64095;BME280;50353;51.420;5.682;2023-05-22T02:36:03;101127.56;;;16.78;91.26
64095;BME280;50353;51.420;5.682;2023-05-22T02:38:28;101126.72;;;16.89;91.81
64095;BME280;50353;51.420;5.682;2023-05-22T02:40:54;101132.16;;;16.87;91.68
64095;BME280;50353;51.420;5.682;2023-05-22T02:43:19;101124.31;;;16.75;92.96
64095;BME280;50353;51.420;5.682;2023-05-22T02:45:44;101125.03;;;16.77;91.69
64095;BME280;50353;51.420;5.682;2023-05-22T02:48:10;101116.59;;;17.04;91.31
64095;BME280;50353;51.420;5.682;2023-05-22T02:50:35;101116.47;;;17.05;90.71
64095;BME280;50353;51.420;5.682;2023-05-22T02:53:01;101113.88;;;17.15;89.44
64095;BME280;50353;51.420;5.682;2023-05-22T02:55:26;101115.66;;;16.82;90.81
64095;BME280;50353;51.420;5.682;2023-05-22T02:57:51;101116.94;;;17.11;90.03
64095;BME280;50353;51.420;5.682;2023-05-22T03:00:17;101110.22;;;16.84;90.80
64095;BME280;50353;51.420;5.682;2023-05-22T03:02:42;101109.78;;;17.11;90.04
64095;BME280;50353;51.420;5.682;2023-05-22T03:05:08;101122.13;;;16.68;92.40
64095;BME280;50353;51.420;5.682;2023-05-22T03:07:33;101115.97;;;16.68;92.52
64095;BME280;50353;51.420;5.682;2023-05-22T03:09:59;101110.88;;;16.65;92.96
64095;BME280;50353;51.420;5.682;2023-05-22T03:12:24;101108.75;;;16.91;90.98
64095;BME280;50353;51.420;5.682;2023-05-22T03:14:50;101114.03;;;16.59;92.50
64095;BME280;50353;51.420;5.682;2023-05-22T03:17:15;101109.75;;;16.79;92.34
64095;BME280;50353;51.420;5.682;2023-05-22T03:19:40;101122.31;;;16.44;93.45
64095;BME280;50353;51.420;5.682;2023-05-22T03:22:05;101117.94;;;16.54;92.39
64095;BME280;50353;51.420;5.682;2023-05-22T03:24:31;101116.00;;;16.56;92.57
64095;BME280;50353;51.420;5.682;2023-05-22T03:26:58;101109.47;;;16.82;91.47
64095;BME280;50353;51.420;5.682;2023-05-22T03:29:24;101112.50;;;16.45;93.73
64095;BME280;50353;51.420;5.682;2023-05-22T03:31:50;101112.84;;;16.51;92.94
64095;BME280;50353;51.420;5.682;2023-05-22T03:34:15;101106.06;;;16.47;92.64
64095;BME280;50353;51.420;5.682;2023-05-22T03:36:40;101108.19;;;16.76;92.61
64095;BME280;50353;51.420;5.682;2023-05-22T03:39:06;101119.63;;;16.55;92.98
64095;BME280;50353;51.420;5.682;2023-05-22T03:41:31;101113.09;;;16.37;93.53
64095;BME280;50353;51.420;5.682;2023-05-22T03:43:57;101111.03;;;16.52;92.58
64095;BME280;50353;51.420;5.682;2023-05-22T03:46:22;101111.88;;;16.41;93.15
64095;BME280;50353;51.420;5.682;2023-05-22T03:48:47;101119.16;;;16.50;92.13
64095;BME280;50353;51.420;5.682;2023-05-22T03:51:12;101115.25;;;16.54;91.58
64095;BME280;50353;51.420;5.682;2023-05-22T03:53:38;101118.94;;;16.42;92.67
64095;BME280;50353;51.420;5.682;2023-05-22T03:56:03;101110.41;;;16.60;91.05
64095;BME280;50353;51.420;5.682;2023-05-22T03:58:28;101110.66;;;16.56;91.05
64095;BME280;50353;51.420;5.682;2023-05-22T04:00:54;101115.78;;;16.26;92.80
64095;BME280;50353;51.420;5.682;2023-05-22T04:03:23;101115.09;;;16.79;91.05
64095;BME280;50353;51.420;5.682;2023-05-22T04:05:49;101118.81;;;16.10;93.28
64095;BME280;50353;51.420;5.682;2023-05-22T04:08:15;101123.06;;;16.35;93.09
64095;BME280;50353;51.420;5.682;2023-05-22T04:10:40;101116.63;;;16.37;92.47
64095;BME280;50353;51.420;5.682;2023-05-22T04:13:06;101114.31;;;16.55;91.02
64095;BME280;50353;51.420;5.682;2023-05-22T04:15:31;101124.75;;;16.25;92.47
64095;BME280;50353;51.420;5.682;2023-05-22T04:17:58;101126.22;;;16.29;92.81
64095;BME280;50353;51.420;5.682;2023-05-22T04:20:24;101117.97;;;16.32;92.56
64095;BME280;50353;51.420;5.682;2023-05-22T04:22:49;101118.19;;;16.51;91.70
64095;BME280;50353;51.420;5.682;2023-05-22T04:25:14;101114.09;;;16.13;94.39
64095;BME280;50353;51.420;5.682;2023-05-22T04:27:40;101120.47;;;16.56;92.17
64095;BME280;50353;51.420;5.682;2023-05-22T04:30:06;101115.00;;;17.01;89.87
64095;BME280;50353;51.420;5.682;2023-05-22T04:32:32;101111.72;;;17.09;89.33
64095;BME280;50353;51.420;5.682;2023-05-22T04:34:58;101114.69;;;16.83;90.25
64095;BME280;50353;51.420;5.682;2023-05-22T04:37:24;101121.91;;;16.60;91.85
64095;BME280;50353;51.420;5.682;2023-05-22T04:39:52;101118.91;;;17.09;89.54
64095;BME280;50353;51.420;5.682;2023-05-22T04:42:22;101120.97;;;17.05;89.30
64095;BME280;50353;51.420;5.682;2023-05-22T04:44:49;101132.75;;;17.02;88.33
64095;BME280;50353;51.420;5.682;2023-05-22T04:47:17;101133.19;;;16.64;90.88
64095;BME280;50353;51.420;5.682;2023-05-22T04:49:43;101143.53;;;16.57;91.96
64095;BME280;50353;51.420;5.682;2023-05-22T04:52:10;101138.47;;;16.86;90.95
64095;BME280;50353;51.420;5.682;2023-05-22T04:54:36;101138.09;;;17.02;88.34
64095;BME280;50353;51.420;5.682;2023-05-22T04:57:01;101139.03;;;16.69;91.72
64095;BME280;50353;51.420;5.682;2023-05-22T04:59:28;101136.09;;;17.16;87.62
64095;BME280;50353;51.420;5.682;2023-05-22T05:01:55;101149.66;;;16.80;89.96
64095;BME280;50353;51.420;5.682;2023-05-22T05:04:21;101141.63;;;17.03;90.34
64095;BME280;50353;51.420;5.682;2023-05-22T05:06:46;101139.38;;;17.19;86.31
64095;BME280;50353;51.420;5.682;2023-05-22T05:09:11;101142.19;;;16.63;91.35
64095;BME280;50353;51.420;5.682;2023-05-22T05:11:37;101149.94;;;16.66;92.23
64095;BME280;50353;51.420;5.682;2023-05-22T05:14:02;101151.91;;;17.08;90.11
64095;BME280;50353;51.420;5.682;2023-05-22T05:16:27;101152.38;;;16.58;92.23
64095;BME280;50353;51.420;5.682;2023-05-22T05:18:53;101152.19;;;17.04;90.02
64095;BME280;50353;51.420;5.682;2023-05-22T05:21:19;101150.00;;;17.31;88.48
64095;BME280;50353;51.420;5.682;2023-05-22T05:23:46;101149.78;;;16.79;91.32
64095;BME280;50353;51.420;5.682;2023-05-22T05:26:11;101149.16;;;16.86;89.19
64095;BME280;50353;51.420;5.682;2023-05-22T05:28:36;101143.28;;;16.60;92.12
64095;BME280;50353;51.420;5.682;2023-05-22T05:31:02;101152.34;;;16.80;90.26
64095;BME280;50353;51.420;5.682;2023-05-22T05:33:27;101139.38;;;17.19;85.26
64095;BME280;50353;51.420;5.682;2023-05-22T05:35:52;101159.06;;;16.52;91.49
64095;BME280;50353;51.420;5.682;2023-05-22T05:38:18;101153.72;;;16.52;90.52
64095;BME280;50353;51.420;5.682;2023-05-22T05:40:44;101150.72;;;16.22;94.24
64095;BME280;50353;51.420;5.682;2023-05-22T05:43:09;101150.22;;;16.51;92.31
64095;BME280;50353;51.420;5.682;2023-05-22T05:45:35;101155.88;;;16.69;88.43
64095;BME280;50353;51.420;5.682;2023-05-22T05:48:00;101155.19;;;16.45;92.96
64095;BME280;50353;51.420;5.682;2023-05-22T05:50:26;101152.75;;;16.53;92.44
64095;BME280;50353;51.420;5.682;2023-05-22T05:52:51;101155.41;;;16.76;92.05
64095;BME280;50353;51.420;5.682;2023-05-22T05:55:17;101157.06;;;16.77;91.17
64095;BME280;50353;51.420;5.682;2023-05-22T05:57:42;101168.56;;;16.33;92.14
64095;BME280;50353;51.420;5.682;2023-05-22T06:00:08;101162.59;;;16.30;94.05
64095;BME280;50353;51.420;5.682;2023-05-22T06:02:36;101161.63;;;16.42;94.08
64095;BME280;50353;51.420;5.682;2023-05-22T06:05:02;101170.47;;;16.43;93.50
64095;BME280;50353;51.420;5.682;2023-05-22T06:07:29;101165.97;;;16.54;93.15
64095;BME280;50353;51.420;5.682;2023-05-22T06:09:54;101164.75;;;16.59;93.71
64095;BME280;50353;51.420;5.682;2023-05-22T06:12:19;101164.09;;;17.00;90.76
64095;BME280;50353;51.420;5.682;2023-05-22T06:14:45;101169.41;;;17.75;82.70
64095;BME280;50353;51.420;5.682;2023-05-22T06:17:10;101176.94;;;17.81;83.13
64095;BME280;50353;51.420;5.682;2023-05-22T06:19:36;101183.19;;;17.49;83.04
64095;BME280;50353;51.420;5.682;2023-05-22T06:22:01;101178.00;;;17.15;87.95
64095;BME280;50353;51.420;5.682;2023-05-22T06:24:27;101178.25;;;17.66;85.77
64095;BME280;50353;51.420;5.682;2023-05-22T06:26:52;101179.44;;;17.19;88.35
64095;BME280;50353;51.420;5.682;2023-05-22T06:29:17;101184.00;;;17.29;87.28
64095;BME280;50353;51.420;5.682;2023-05-22T06:31:43;101192.28;;;17.26;89.35
64095;BME280;50353;51.420;5.682;2023-05-22T06:34:08;101193.47;;;17.00;90.59
64095;BME280;50353;51.420;5.682;2023-05-22T06:36:33;101189.72;;;16.92;90.07
64095;BME280;50353;51.420;5.682;2023-05-22T06:39:00;101192.78;;;16.76;91.70
64095;BME280;50353;51.420;5.682;2023-05-22T06:41:25;101193.56;;;16.87;91.60
64095;BME280;50353;51.420;5.682;2023-05-22T06:43:51;101191.47;;;17.14;90.20
64095;BME280;50353;51.420;5.682;2023-05-22T06:46:16;101192.19;;;17.69;83.82
64095;BME280;50353;51.420;5.682;2023-05-22T06:48:41;101200.72;;;17.96;81.37
64095;BME280;50353;51.420;5.682;2023-05-22T06:51:07;101195.00;;;17.68;85.85
64095;BME280;50353;51.420;5.682;2023-05-22T06:53:35;101206.31;;;17.39;88.42
64095;BME280;50353;51.420;5.682;2023-05-22T06:56:00;101196.16;;;17.54;87.21
64095;BME280;50353;51.420;5.682;2023-05-22T06:58:26;101207.75;;;17.43;86.67
64095;BME280;50353;51.420;5.682;2023-05-22T07:00:51;101219.72;;;17.81;83.40
64095;BME280;50353;51.420;5.682;2023-05-22T07:03:18;101221.50;;;17.92;83.18
64095;BME280;50353;51.420;5.682;2023-05-22T07:05:43;101222.59;;;17.89;82.07
64095;BME280;50353;51.420;5.682;2023-05-22T07:08:08;101229.63;;;18.12;80.40
64095;BME280;50353;51.420;5.682;2023-05-22T07:10:34;101226.38;;;17.87;84.32
64095;BME280;50353;51.420;5.682;2023-05-22T07:12:59;101239.97;;;18.47;79.18
64095;BME280;50353;51.420;5.682;2023-05-22T07:15:25;101228.34;;;18.27;81.50
64095;BME280;50353;51.420;5.682;2023-05-22T07:17:50;101237.28;;;17.42;87.26
64095;BME280;50353;51.420;5.682;2023-05-22T07:20:15;101228.06;;;17.67;86.46
64095;BME280;50353;51.420;5.682;2023-05-22T07:22:41;101237.53;;;18.34;80.13
64095;BME280;50353;51.420;5.682;2023-05-22T07:25:07;101242.88;;;18.13;83.02
64095;BME280;50353;51.420;5.682;2023-05-22T07:27:32;101234.34;;;17.98;85.15
64095;BME280;50353;51.420;5.682;2023-05-22T07:29:58;101239.59;;;17.88;86.32
64095;BME280;50353;51.420;5.682;2023-05-22T07:32:23;101234.25;;;18.31;84.34
64095;BME280;50353;51.420;5.682;2023-05-22T07:34:48;101235.91;;;18.94;77.37
64095;BME280;50353;51.420;5.682;2023-05-22T07:37:14;101236.06;;;19.02;78.29
64095;BME280;50353;51.420;5.682;2023-05-22T07:39:39;101236.66;;;19.05;78.06
64095;BME280;50353;51.420;5.682;2023-05-22T07:42:05;101245.72;;;18.73;81.39
64095;BME280;50353;51.420;5.682;2023-05-22T07:44:30;101242.47;;;18.39;83.42
64095;BME280;50353;51.420;5.682;2023-05-22T07:46:56;101242.97;;;18.02;85.52
64095;BME280;50353;51.420;5.682;2023-05-22T07:49:22;101239.69;;;18.19;86.48
64095;BME280;50353;51.420;5.682;2023-05-22T07:51:48;101248.00;;;18.16;86.24
64095;BME280;50353;51.420;5.682;2023-05-22T07:54:13;101250.47;;;18.08;85.83
64095;BME280;50353;51.420;5.682;2023-05-22T07:56:42;101252.75;;;18.13;87.31
64095;BME280;50353;51.420;5.682;2023-05-22T07:59:10;101249.84;;;18.47;83.01
64095;BME280;50353;51.420;5.682;2023-05-22T08:01:39;101246.50;;;18.54;82.37
64095;BME280;50353;51.420;5.682;2023-05-22T08:04:05;101240.03;;;18.57;84.36
64095;BME280;50353;51.420;5.682;2023-05-22T08:06:30;101249.69;;;19.30;77.71
64095;BME280;50353;51.420;5.682;2023-05-22T08:08:56;101243.88;;;19.24;78.82
64095;BME280;50353;51.420;5.682;2023-05-22T08:11:21;101243.13;;;18.93;81.32
64095;BME280;50353;51.420;5.682;2023-05-22T08:13:47;101241.72;;;19.08;81.08
64095;BME280;50353;51.420;5.682;2023-05-22T08:16:13;101243.81;;;18.54;85.27
64095;BME280;50353;51.420;5.682;2023-05-22T08:18:38;101242.94;;;18.54;85.10
64095;BME280;50353;51.420;5.682;2023-05-22T08:21:03;101241.13;;;18.54;85.98
64095;BME280;50353;51.420;5.682;2023-05-22T08:23:29;101242.72;;;18.36;86.29
64095;BME280;50353;51.420;5.682;2023-05-22T08:25:55;101233.69;;;18.27;86.72
64095;BME280;50353;51.420;5.682;2023-05-22T08:28:21;101234.53;;;18.28;86.05
64095;BME280;50353;51.420;5.682;2023-05-22T08:30:46;101242.81;;;18.24;87.82
64095;BME280;50353;51.420;5.682;2023-05-22T08:33:11;101248.69;;;18.80;82.26
64095;BME280;50353;51.420;5.682;2023-05-22T08:35:37;101248.22;;;19.06;81.88
64095;BME280;50353;51.420;5.682;2023-05-22T08:38:02;101248.66;;;19.21;81.92
64095;BME280;50353;51.420;5.682;2023-05-22T08:40:34;101249.94;;;19.17;81.22
64095;BME280;50353;51.420;5.682;2023-05-22T08:43:03;101240.88;;;18.88;83.72
64095;BME280;50353;51.420;5.682;2023-05-22T08:45:29;101242.03;;;19.25;81.91
64095;BME280;50353;51.420;5.682;2023-05-22T08:47:58;101246.06;;;18.90;84.29
64095;BME280;50353;51.420;5.682;2023-05-22T08:50:26;101244.47;;;19.77;80.31
64095;BME280;50353;51.420;5.682;2023-05-22T08:52:54;101251.28;;;18.91;82.89
64095;BME280;50353;51.420;5.682;2023-05-22T08:55:21;101245.31;;;19.87;78.01
64095;BME280;50353;51.420;5.682;2023-05-22T08:57:48;101242.53;;;20.26;74.49
64095;BME280;50353;51.420;5.682;2023-05-22T09:00:15;101239.44;;;20.21;73.69
64095;BME280;50353;51.420;5.682;2023-05-22T09:02:42;101238.09;;;19.98;76.56
64095;BME280;50353;51.420;5.682;2023-05-22T09:05:08;101247.84;;;19.79;77.85
64095;BME280;50353;51.420;5.682;2023-05-22T09:07:34;101251.06;;;20.02;76.70
64095;BME280;50353;51.420;5.682;2023-05-22T09:10:00;101250.53;;;19.59;80.62
64095;BME280;50353;51.420;5.682;2023-05-22T09:12:30;101251.66;;;19.57;80.64
64095;BME280;50353;51.420;5.682;2023-05-22T09:14:55;101257.72;;;19.98;78.44
64095;BME280;50353;51.420;5.682;2023-05-22T09:17:22;101248.94;;;20.16;76.10
64095;BME280;50353;51.420;5.682;2023-05-22T09:19:48;101250.00;;;20.33;77.22
64095;BME280;50353;51.420;5.682;2023-05-22T09:22:13;101254.63;;;20.88;73.77
64095;BME280;50353;51.420;5.682;2023-05-22T09:24:43;101252.44;;;20.64;75.69
64095;BME280;50353;51.420;5.682;2023-05-22T09:27:10;101251.88;;;20.98;74.22
64095;BME280;50353;51.420;5.682;2023-05-22T09:29:51;101245.66;;;20.22;79.72
64095;BME280;50353;51.420;5.682;2023-05-22T09:32:18;101249.97;;;21.08;74.61
64095;BME280;50353;51.420;5.682;2023-05-22T09:34:44;101250.94;;;20.89;75.06
64095;BME280;50353;51.420;5.682;2023-05-22T09:37:14;101253.13;;;20.75;75.16
64095;BME280;50353;51.420;5.682;2023-05-22T09:39:42;101254.09;;;21.02;75.64
64095;BME280;50353;51.420;5.682;2023-05-22T09:42:09;101253.19;;;21.30;74.13
64095;BME280;50353;51.420;5.682;2023-05-22T09:44:37;101238.22;;;21.81;70.90
64095;BME280;50353;51.420;5.682;2023-05-22T09:47:03;101245.09;;;21.39;72.75
64095;BME280;50353;51.420;5.682;2023-05-22T09:49:30;101243.09;;;21.59;73.17
64095;BME280;50353;51.420;5.682;2023-05-22T09:51:55;101243.38;;;21.20;74.07
64095;BME280;50353;51.420;5.682;2023-05-22T09:54:24;101237.63;;;20.59;77.69
64095;BME280;50353;51.420;5.682;2023-05-22T09:56:52;101239.84;;;20.64;76.62
64095;BME280;50353;51.420;5.682;2023-05-22T09:59:21;101239.59;;;21.13;75.84
64095;BME280;50353;51.420;5.682;2023-05-22T10:01:51;101232.97;;;21.53;75.01
64095;BME280;50353;51.420;5.682;2023-05-22T10:04:18;101233.44;;;22.19;71.17
64095;BME280;50353;51.420;5.682;2023-05-22T10:06:53;101236.03;;;21.58;74.63
64095;BME280;50353;51.420;5.682;2023-05-22T10:09:23;101233.84;;;22.33;71.58
64095;BME280;50353;51.420;5.682;2023-05-22T10:11:52;101238.25;;;22.34;70.94
64095;BME280;50353;51.420;5.682;2023-05-22T10:14:19;101237.19;;;23.04;66.92
64095;BME280;50353;51.420;5.682;2023-05-22T10:16:44;101233.03;;;23.26;69.11
64095;BME280;50353;51.420;5.682;2023-05-22T10:19:13;101236.78;;;23.25;69.19
64095;BME280;50353;51.420;5.682;2023-05-22T10:21:40;101229.50;;;23.34;68.37
64095;BME280;50353;51.420;5.682;2023-05-22T10:24:06;101227.69;;;23.42;68.12
64095;BME280;50353;51.420;5.682;2023-05-22T10:26:32;101225.47;;;23.54;66.70
64095;BME280;50353;51.420;5.682;2023-05-22T10:29:08;101230.09;;;24.43;64.33
64095;BME280;50353;51.420;5.682;2023-05-22T10:34:09;101228.50;;;23.35;66.98
64095;BME280;50353;51.420;5.682;2023-05-22T10:42:15;101222.47;;;23.90;66.50
64095;BME280;50353;51.420;5.682;2023-05-22T10:44:41;101225.66;;;23.94;64.88
64095;BME280;50353;51.420;5.682;2023-05-22T10:47:08;101231.91;;;23.70;65.90
64095;BME280;50353;51.420;5.682;2023-05-22T10:49:44;101225.63;;;24.10;64.93
64095;BME280;50353;51.420;5.682;2023-05-22T10:52:09;101218.06;;;23.65;67.31
64095;BME280;50353;51.420;5.682;2023-05-22T10:57:09;101217.78;;;24.80;64.67
64095;BME280;50353;51.420;5.682;2023-05-22T10:59:35;101229.44;;;25.12;61.70
64095;BME280;50353;51.420;5.682;2023-05-22T11:02:01;101225.41;;;25.08;61.89
64095;BME280;50353;51.420;5.682;2023-05-22T11:04:29;101220.91;;;25.23;61.01
64095;BME280;50353;51.420;5.682;2023-05-22T11:07:02;101220.19;;;25.29;60.13
64095;BME280;50353;51.420;5.682;2023-05-22T11:14:58;101212.59;;;25.71;58.34
64095;BME280;50353;51.420;5.682;2023-05-22T11:17:28;101208.19;;;24.77;61.90
64095;BME280;50353;51.420;5.682;2023-05-22T11:22:22;101212.34;;;24.88;61.69
64095;BME280;50353;51.420;5.682;2023-05-22T11:24:48;101215.75;;;25.13;60.10
64095;BME280;50353;51.420;5.682;2023-05-22T11:27:13;101203.78;;;25.92;61.64
64095;BME280;50353;51.420;5.682;2023-05-22T11:29:39;101204.53;;;26.76;59.32
64095;BME280;50353;51.420;5.682;2023-05-22T11:32:07;101210.69;;;26.70;59.68
64095;BME280;50353;51.420;5.682;2023-05-22T11:34:33;101206.41;;;26.01;59.13
64095;BME280;50353;51.420;5.682;2023-05-22T11:36:58;101207.06;;;26.03;60.24
64095;BME280;50353;51.420;5.682;2023-05-22T11:39:24;101205.75;;;26.58;58.03
64095;BME280;50353;51.420;5.682;2023-05-22T11:41:50;101204.34;;;26.03;59.55
64095;BME280;50353;51.420;5.682;2023-05-22T11:44:15;101202.31;;;26.35;58.83
64095;BME280;50353;51.420;5.682;2023-05-22T11:46:41;101202.59;;;26.25;58.54
64095;BME280;50353;51.420;5.682;2023-05-22T11:49:08;101209.66;;;27.07;54.26
64095;BME280;50353;51.420;5.682;2023-05-22T11:51:37;101199.59;;;26.35;56.08
64095;BME280;50353;51.420;5.682;2023-05-22T11:54:05;101201.69;;;26.69;58.43
64095;BME280;50353;51.420;5.682;2023-05-22T11:56:30;101196.94;;;26.86;55.57
64095;BME280;50353;51.420;5.682;2023-05-22T11:58:56;101193.63;;;26.91;56.42
64095;BME280;50353;51.420;5.682;2023-05-22T12:01:21;101195.38;;;26.47;58.36
64095;BME280;50353;51.420;5.682;2023-05-22T12:03:46;101194.28;;;26.11;58.76
64095;BME280;50353;51.420;5.682;2023-05-22T12:06:11;101198.91;;;27.57;58.97
64095;BME280;50353;51.420;5.682;2023-05-22T12:08:37;101198.63;;;27.09;55.92
64095;BME280;50353;51.420;5.682;2023-05-22T12:11:03;101198.75;;;25.51;58.50
64095;BME280;50353;51.420;5.682;2023-05-22T12:13:29;101188.53;;;25.91;57.57
64095;BME280;50353;51.420;5.682;2023-05-22T12:15:59;101195.28;;;25.57;60.34
64095;BME280;50353;51.420;5.682;2023-05-22T12:18:25;101180.59;;;25.75;59.83
64095;BME280;50353;51.420;5.682;2023-05-22T12:20:54;101181.66;;;26.34;57.82
64095;BME280;50353;51.420;5.682;2023-05-22T12:23:24;101179.53;;;26.14;58.62
64095;BME280;50353;51.420;5.682;2023-05-22T12:26:02;101184.84;;;26.07;58.02
64095;BME280;50353;51.420;5.682;2023-05-22T12:28:30;101178.28;;;25.25;61.50
64095;BME280;50353;51.420;5.682;2023-05-22T12:30:56;101189.44;;;25.54;60.16
64095;BME280;50353;51.420;5.682;2023-05-22T12:33:28;101185.22;;;26.19;57.43
64095;BME280;50353;51.420;5.682;2023-05-22T12:35:57;101184.53;;;25.49;58.96
64095;BME280;50353;51.420;5.682;2023-05-22T12:38:26;101176.75;;;26.95;55.70
64095;BME280;50353;51.420;5.682;2023-05-22T12:40:53;101178.75;;;27.73;58.29
64095;BME280;50353;51.420;5.682;2023-05-22T12:43:23;101187.88;;;27.01;55.05
64095;BME280;50353;51.420;5.682;2023-05-22T12:45:49;101177.34;;;26.09;56.74
64095;BME280;50353;51.420;5.682;2023-05-22T12:48:15;101181.72;;;25.95;58.08
64095;BME280;50353;51.420;5.682;2023-05-22T12:50:41;101172.94;;;26.90;58.39
64095;BME280;50353;51.420;5.682;2023-05-22T12:53:06;101168.13;;;28.07;57.77
64095;BME280;50353;51.420;5.682;2023-05-22T12:55:32;101172.25;;;27.74;53.04
64095;BME280;50353;51.420;5.682;2023-05-22T12:57:57;101161.28;;;27.32;55.35
64095;BME280;50353;51.420;5.682;2023-05-22T13:00:23;101161.41;;;26.81;56.27
64095;BME280;50353;51.420;5.682;2023-05-22T13:02:48;101164.94;;;26.81;56.58
64095;BME280;50353;51.420;5.682;2023-05-22T13:05:14;101164.44;;;26.56;57.90
64095;BME280;50353;51.420;5.682;2023-05-22T13:07:39;101156.66;;;26.53;55.32
64095;BME280;50353;51.420;5.682;2023-05-22T13:10:04;101160.81;;;27.29;55.38